Terminal Aerodrome Forecast
Issued by NWS Sioux Falls, SD

Home | Current Version | Previous Version | Text Only | Print | Product List | Glossary Off
Versions: 1 2 3 4 5 6 7 8 9 10 11 12 13

183
FTUS43 KFSD 210530
TAFFSD
TAF
KFSD 210530Z 2106/2206 32005KT P6SM SKC
     FM211100 VRB04KT 6SM BR FEW002
     FM211300 26004KT P6SM SKC
     FM212200 19005KT P6SM FEW250=

USA.gov is the U.S. government's official web portal to all federal, state and local government web resources and services.